sensor_id;sensor_type;location;lat;lon;timestamp;pressure;altitude;pressure_sealevel;temperature;humidity
61408;BME280;47274;43.054;25.146;2023-11-22T00:01:15;94820.63;;;9.04;75.65
61408;BME280;47274;43.054;25.146;2023-11-22T00:03:41;94799.47;;;8.93;75.79
61408;BME280;47274;43.054;25.146;2023-11-22T00:06:13;94804.09;;;8.90;76.17
61408;BME280;47274;43.054;25.146;2023-11-22T00:08:39;94835.91;;;8.95;77.00
61408;BME280;47274;43.054;25.146;2023-11-22T00:11:05;94853.22;;;9.01;76.75
61408;BME280;47274;43.054;25.146;2023-11-22T00:13:31;94841.97;;;8.86;76.55
61408;BME280;47274;43.054;25.146;2023-11-22T00:15:57;94852.19;;;8.86;76.79
61408;BME280;47274;43.054;25.146;2023-11-22T00:18:24;94869.66;;;8.91;76.65
61408;BME280;47274;43.054;25.146;2023-11-22T00:20:51;94852.50;;;8.83;77.31
61408;BME280;47274;43.054;25.146;2023-11-22T00:23:18;94817.66;;;8.56;76.94
61408;BME280;47274;43.054;25.146;2023-11-22T00:25:44;94852.91;;;8.70;77.67
61408;BME280;47274;43.054;25.146;2023-11-22T00:28:10;94864.22;;;8.68;77.08
61408;BME280;47274;43.054;25.146;2023-11-22T00:30:39;94847.97;;;8.51;77.42
61408;BME280;47274;43.054;25.146;2023-11-22T00:33:05;94856.78;;;8.48;77.64
61408;BME280;47274;43.054;25.146;2023-11-22T00:35:32;94806.34;;;8.15;78.49
61408;BME280;47274;43.054;25.146;2023-11-22T00:37:58;94831.06;;;8.32;78.21
61408;BME280;47274;43.054;25.146;2023-11-22T00:40:25;94854.22;;;8.48;79.16
61408;BME280;47274;43.054;25.146;2023-11-22T00:42:52;94813.72;;;8.18;78.69
61408;BME280;47274;43.054;25.146;2023-11-22T00:45:18;94841.63;;;8.37;79.46
61408;BME280;47274;43.054;25.146;2023-11-22T00:47:44;94851.06;;;8.37;79.59
61408;BME280;47274;43.054;25.146;2023-11-22T00:50:11;94846.41;;;8.32;80.19
61408;BME280;47274;43.054;25.146;2023-11-22T00:52:39;94753.94;;;7.67;79.85
61408;BME280;47274;43.054;25.146;2023-11-22T00:55:10;94750.69;;;7.65;80.39
61408;BME280;47274;43.054;25.146;2023-11-22T00:57:36;94865.16;;;8.41;80.98
61408;BME280;47274;43.054;25.146;2023-11-22T01:00:05;94799.78;;;7.94;81.11
61408;BME280;47274;43.054;25.146;2023-11-22T01:02:35;94865.75;;;8.35;82.15
61408;BME280;47274;43.054;25.146;2023-11-22T01:05:07;94751.16;;;7.60;82.01
61408;BME280;47274;43.054;25.146;2023-11-22T01:07:45;94732.84;;;7.47;81.89
61408;BME280;47274;43.054;25.146;2023-11-22T01:10:15;94764.94;;;7.67;82.42
61408;BME280;47274;43.054;25.146;2023-11-22T01:12:41;94809.22;;;7.94;82.90
61408;BME280;47274;43.054;25.146;2023-11-22T01:15:08;94774.19;;;7.68;83.27
61408;BME280;47274;43.054;25.146;2023-11-22T01:17:38;94811.41;;;7.89;83.93
61408;BME280;47274;43.054;25.146;2023-11-22T01:20:05;94814.25;;;7.86;83.14
61408;BME280;47274;43.054;25.146;2023-11-22T01:22:33;94802.28;;;7.68;84.31
61408;BME280;47274;43.054;25.146;2023-11-22T01:24:59;94875.47;;;8.13;83.33
61408;BME280;47274;43.054;25.146;2023-11-22T01:27:26;94816.16;;;7.83;83.49
61408;BME280;47274;43.054;25.146;2023-11-22T01:29:53;94875.97;;;8.17;83.80
61408;BME280;47274;43.054;25.146;2023-11-22T01:32:33;94863.72;;;8.02;84.00
61408;BME280;47274;43.054;25.146;2023-11-22T01:35:18;94852.03;;;8.00;85.14
61408;BME280;47274;43.054;25.146;2023-11-22T01:38:15;94837.16;;;7.95;84.88
61408;BME280;47274;43.054;25.146;2023-11-22T01:41:00;94826.13;;;7.95;85.55
61408;BME280;47274;43.054;25.146;2023-11-22T01:43:40;94859.56;;;8.19;85.54
61408;BME280;47274;43.054;25.146;2023-11-22T01:46:08;94855.78;;;8.05;84.58
61408;BME280;47274;43.054;25.146;2023-11-22T01:48:35;94824.53;;;7.76;85.89
61408;BME280;47274;43.054;25.146;2023-11-22T01:51:04;94806.75;;;7.66;86.09
61408;BME280;47274;43.054;25.146;2023-11-22T01:53:32;94852.34;;;7.97;86.64
61408;BME280;47274;43.054;25.146;2023-11-22T01:55:59;94840.91;;;7.83;87.05
61408;BME280;47274;43.054;25.146;2023-11-22T01:58:26;94809.38;;;7.56;87.45
61408;BME280;47274;43.054;25.146;2023-11-22T02:00:52;94864.97;;;7.80;87.31
61408;BME280;47274;43.054;25.146;2023-11-22T02:03:18;94864.75;;;7.74;87.38
61408;BME280;47274;43.054;25.146;2023-11-22T02:05:45;94829.91;;;7.55;88.04
61408;BME280;47274;43.054;25.146;2023-11-22T02:08:12;94844.84;;;7.77;88.56
61408;BME280;47274;43.054;25.146;2023-11-22T02:10:38;94848.84;;;7.80;88.07
61408;BME280;47274;43.054;25.146;2023-11-22T02:13:08;94861.91;;;7.95;87.72
61408;BME280;47274;43.054;25.146;2023-11-22T02:15:35;94841.41;;;7.87;88.43
61408;BME280;47274;43.054;25.146;2023-11-22T02:18:03;94859.56;;;8.01;87.92
61408;BME280;47274;43.054;25.146;2023-11-22T02:20:30;94815.13;;;7.76;86.65
61408;BME280;47274;43.054;25.146;2023-11-22T02:23:21;94832.78;;;8.05;88.35
61408;BME280;47274;43.054;25.146;2023-11-22T02:26:07;94832.94;;;8.04;88.26
61408;BME280;47274;43.054;25.146;2023-11-22T02:28:58;94838.34;;;8.01;88.33
61408;BME280;47274;43.054;25.146;2023-11-22T02:31:35;94853.38;;;8.04;87.81
61408;BME280;47274;43.054;25.146;2023-11-22T02:34:06;94778.72;;;7.56;87.94
61408;BME280;47274;43.054;25.146;2023-11-22T02:36:32;94794.19;;;7.73;87.05
61408;BME280;47274;43.054;25.146;2023-11-22T02:38:58;94803.69;;;7.80;88.05
61408;BME280;47274;43.054;25.146;2023-11-22T02:41:27;94803.16;;;7.77;87.30
61408;BME280;47274;43.054;25.146;2023-11-22T02:43:55;94848.03;;;7.97;88.65
61408;BME280;47274;43.054;25.146;2023-11-22T02:46:23;94837.91;;;7.88;88.60
61408;BME280;47274;43.054;25.146;2023-11-22T02:48:50;94810.91;;;7.67;89.07
61408;BME280;47274;43.054;25.146;2023-11-22T02:51:15;94823.09;;;7.73;88.46
61408;BME280;47274;43.054;25.146;2023-11-22T02:53:42;94758.88;;;7.32;87.77
61408;BME280;47274;43.054;25.146;2023-11-22T02:56:09;94822.19;;;7.65;87.81
61408;BME280;47274;43.054;25.146;2023-11-22T02:58:36;94851.13;;;7.83;87.37
61408;BME280;47274;43.054;25.146;2023-11-22T03:01:01;94777.38;;;7.34;87.84
61408;BME280;47274;43.054;25.146;2023-11-22T03:03:30;94851.41;;;7.80;88.00
61408;BME280;47274;43.054;25.146;2023-11-22T03:05:56;94855.41;;;7.82;89.23
61408;BME280;47274;43.054;25.146;2023-11-22T03:08:22;94864.09;;;7.90;87.91
61408;BME280;47274;43.054;25.146;2023-11-22T03:10:50;94820.16;;;7.68;87.33
61408;BME280;47274;43.054;25.146;2023-11-22T03:13:17;94766.25;;;7.35;87.64
61408;BME280;47274;43.054;25.146;2023-11-22T03:15:44;94851.91;;;7.83;88.52
61408;BME280;47274;43.054;25.146;2023-11-22T03:18:10;94855.50;;;7.91;87.73
61408;BME280;47274;43.054;25.146;2023-11-22T03:20:39;94777.84;;;7.48;88.00
61408;BME280;47274;43.054;25.146;2023-11-22T03:23:09;94818.69;;;7.66;87.45
61408;BME280;47274;43.054;25.146;2023-11-22T03:25:36;94728.88;;;6.99;88.51
61408;BME280;47274;43.054;25.146;2023-11-22T03:28:03;94853.75;;;7.73;89.22
61408;BME280;47274;43.054;25.146;2023-11-22T03:30:29;94866.63;;;7.72;88.41
61408;BME280;47274;43.054;25.146;2023-11-22T03:32:55;94809.03;;;7.42;88.83
61408;BME280;47274;43.054;25.146;2023-11-22T03:35:24;94829.00;;;7.56;88.48
61408;BME280;47274;43.054;25.146;2023-11-22T03:37:51;94811.81;;;7.48;88.67
61408;BME280;47274;43.054;25.146;2023-11-22T03:40:17;94831.31;;;7.67;88.46
61408;BME280;47274;43.054;25.146;2023-11-22T03:42:43;94846.66;;;7.67;88.35
61408;BME280;47274;43.054;25.146;2023-11-22T03:45:11;94833.16;;;7.57;89.25
61408;BME280;47274;43.054;25.146;2023-11-22T03:47:41;94850.91;;;7.76;88.91
61408;BME280;47274;43.054;25.146;2023-11-22T03:50:07;94809.44;;;7.47;89.37
61408;BME280;47274;43.054;25.146;2023-11-22T03:52:35;94847.72;;;7.65;89.55
61408;BME280;47274;43.054;25.146;2023-11-22T03:55:01;94821.09;;;7.49;88.91
61408;BME280;47274;43.054;25.146;2023-11-22T03:57:29;94835.53;;;7.58;89.21
61408;BME280;47274;43.054;25.146;2023-11-22T03:59:54;94862.19;;;7.74;88.89
61408;BME280;47274;43.054;25.146;2023-11-22T04:02:20;94853.22;;;7.70;89.29
61408;BME280;47274;43.054;25.146;2023-11-22T04:04:46;94821.09;;;7.49;89.15
61408;BME280;47274;43.054;25.146;2023-11-22T04:07:12;94858.19;;;7.71;88.42
61408;BME280;47274;43.054;25.146;2023-11-22T04:09:38;94797.16;;;7.32;89.14
61408;BME280;47274;43.054;25.146;2023-11-22T04:12:04;94853.00;;;7.63;88.96
61408;BME280;47274;43.054;25.146;2023-11-22T04:14:31;94845.63;;;7.60;88.15
61408;BME280;47274;43.054;25.146;2023-11-22T04:16:58;94833.72;;;7.51;88.78
61408;BME280;47274;43.054;25.146;2023-11-22T04:19:25;94866.13;;;7.68;88.63
61408;BME280;47274;43.054;25.146;2023-11-22T04:21:51;94851.53;;;7.60;88.72
61408;BME280;47274;43.054;25.146;2023-11-22T04:24:16;94856.19;;;7.65;88.81
61408;BME280;47274;43.054;25.146;2023-11-22T04:26:43;94876.66;;;7.83;88.97
61408;BME280;47274;43.054;25.146;2023-11-22T04:29:09;94838.91;;;7.59;89.03
61408;BME280;47274;43.054;25.146;2023-11-22T04:31:35;94850.22;;;7.56;88.46
61408;BME280;47274;43.054;25.146;2023-11-22T04:34:01;94883.19;;;7.68;89.14
61408;BME280;47274;43.054;25.146;2023-11-22T04:36:27;94893.50;;;7.76;89.79
61408;BME280;47274;43.054;25.146;2023-11-22T04:38:53;94898.91;;;7.73;89.44
61408;BME280;47274;43.054;25.146;2023-11-22T04:41:19;94898.09;;;7.72;90.46
61408;BME280;47274;43.054;25.146;2023-11-22T04:43:47;94896.03;;;7.58;89.95
61408;BME280;47274;43.054;25.146;2023-11-22T04:46:15;94911.97;;;7.70;89.64
61408;BME280;47274;43.054;25.146;2023-11-22T04:48:41;94907.94;;;7.67;90.59
61408;BME280;47274;43.054;25.146;2023-11-22T04:51:14;94894.78;;;7.62;89.96
61408;BME280;47274;43.054;25.146;2023-11-22T04:53:41;94873.00;;;7.40;90.26
61408;BME280;47274;43.054;25.146;2023-11-22T04:56:11;94900.19;;;7.59;90.27
61408;BME280;47274;43.054;25.146;2023-11-22T04:58:37;94896.97;;;7.57;90.62
61408;BME280;47274;43.054;25.146;2023-11-22T05:01:03;94897.66;;;7.59;90.59
61408;BME280;47274;43.054;25.146;2023-11-22T05:03:30;94896.75;;;7.50;90.29
61408;BME280;47274;43.054;25.146;2023-11-22T05:05:56;94895.72;;;7.43;90.78
61408;BME280;47274;43.054;25.146;2023-11-22T05:08:24;94900.00;;;7.43;90.90
61408;BME280;47274;43.054;25.146;2023-11-22T05:10:51;94923.75;;;7.53;91.04
61408;BME280;47274;43.054;25.146;2023-11-22T05:13:17;94918.69;;;7.43;91.39
61408;BME280;47274;43.054;25.146;2023-11-22T05:15:42;94919.91;;;7.39;90.92
61408;BME280;47274;43.054;25.146;2023-11-22T05:18:08;94959.06;;;7.57;91.55
61408;BME280;47274;43.054;25.146;2023-11-22T05:20:35;94956.38;;;7.59;91.42
61408;BME280;47274;43.054;25.146;2023-11-22T05:23:01;94940.94;;;7.51;91.14
61408;BME280;47274;43.054;25.146;2023-11-22T05:25:27;94943.25;;;7.44;91.35
61408;BME280;47274;43.054;25.146;2023-11-22T05:27:53;94940.09;;;7.32;93.43
61408;BME280;47274;43.054;25.146;2023-11-22T05:30:19;94923.25;;;7.12;92.59
61408;BME280;47274;43.054;25.146;2023-11-22T05:32:46;94948.88;;;7.10;93.63
61408;BME280;47274;43.054;25.146;2023-11-22T05:35:12;94947.69;;;7.15;94.25
61408;BME280;47274;43.054;25.146;2023-11-22T05:37:41;94992.38;;;7.28;94.45
61408;BME280;47274;43.054;25.146;2023-11-22T05:40:07;94975.81;;;7.32;93.38
61408;BME280;47274;43.054;25.146;2023-11-22T05:42:35;94970.16;;;7.39;93.03
61408;BME280;47274;43.054;25.146;2023-11-22T05:45:04;94959.19;;;7.28;93.52
61408;BME280;47274;43.054;25.146;2023-11-22T05:47:31;94997.00;;;7.43;93.93
61408;BME280;47274;43.054;25.146;2023-11-22T05:49:57;94910.63;;;7.01;94.02
61408;BME280;47274;43.054;25.146;2023-11-22T05:52:23;94905.13;;;7.05;94.04
61408;BME280;47274;43.054;25.146;2023-11-22T05:54:51;94947.88;;;7.31;94.01
61408;BME280;47274;43.054;25.146;2023-11-22T05:57:17;94959.13;;;7.38;94.36
61408;BME280;47274;43.054;25.146;2023-11-22T05:59:46;94942.78;;;7.31;95.25
61408;BME280;47274;43.054;25.146;2023-11-22T06:02:13;94973.63;;;7.38;95.29
61408;BME280;47274;43.054;25.146;2023-11-22T06:04:39;94975.81;;;7.32;95.94
61408;BME280;47274;43.054;25.146;2023-11-22T06:07:05;94903.47;;;6.77;96.28
61408;BME280;47274;43.054;25.146;2023-11-22T06:09:33;94997.56;;;7.36;97.22
61408;BME280;47274;43.054;25.146;2023-11-22T06:11:59;94979.75;;;7.17;96.67
61408;BME280;47274;43.054;25.146;2023-11-22T06:14:26;95002.00;;;7.34;97.18
61408;BME280;47274;43.054;25.146;2023-11-22T06:16:54;94981.47;;;7.26;96.95
61408;BME280;47274;43.054;25.146;2023-11-22T06:19:20;94966.47;;;7.13;97.49
61408;BME280;47274;43.054;25.146;2023-11-22T06:21:46;94960.03;;;7.09;97.10
61408;BME280;47274;43.054;25.146;2023-11-22T06:24:12;94962.16;;;7.14;97.69
61408;BME280;47274;43.054;25.146;2023-11-22T06:26:43;95012.44;;;7.41;97.47
61408;BME280;47274;43.054;25.146;2023-11-22T06:29:09;94990.47;;;7.30;97.89
61408;BME280;47274;43.054;25.146;2023-11-22T06:31:35;95029.25;;;7.44;98.41
61408;BME280;47274;43.054;25.146;2023-11-22T06:34:01;95055.31;;;7.47;97.88
61408;BME280;47274;43.054;25.146;2023-11-22T06:36:27;95062.44;;;7.44;97.99
61408;BME280;47274;43.054;25.146;2023-11-22T06:38:53;95065.00;;;7.44;98.16
61408;BME280;47274;43.054;25.146;2023-11-22T06:41:21;94973.53;;;6.82;98.77
61408;BME280;47274;43.054;25.146;2023-11-22T06:43:49;95040.97;;;7.36;99.12
61408;BME280;47274;43.054;25.146;2023-11-22T06:46:16;95058.00;;;7.46;99.84
61408;BME280;47274;43.054;25.146;2023-11-22T06:48:49;94992.28;;;7.01;100.00
61408;BME280;47274;43.054;25.146;2023-11-22T06:51:22;95011.59;;;7.13;100.00
61408;BME280;47274;43.054;25.146;2023-11-22T06:53:58;95016.97;;;7.10;100.00
61408;BME280;47274;43.054;25.146;2023-11-22T06:56:24;95015.78;;;7.04;99.65
61408;BME280;47274;43.054;25.146;2023-11-22T06:58:53;94978.88;;;6.89;100.00
61408;BME280;47274;43.054;25.146;2023-11-22T07:01:23;95020.06;;;7.13;99.81
61408;BME280;47274;43.054;25.146;2023-11-22T07:04:00;95048.63;;;7.36;100.00
61408;BME280;47274;43.054;25.146;2023-11-22T07:06:29;95027.41;;;7.26;100.00
61408;BME280;47274;43.054;25.146;2023-11-22T07:08:54;95074.75;;;7.58;100.00
61408;BME280;47274;43.054;25.146;2023-11-22T07:11:24;95069.28;;;7.53;100.00
61408;BME280;47274;43.054;25.146;2023-11-22T07:13:50;94978.19;;;6.97;99.75
61408;BME280;47274;43.054;25.146;2023-11-22T07:16:19;95085.09;;;7.66;99.14
61408;BME280;47274;43.054;25.146;2023-11-22T07:18:46;94976.59;;;6.96;99.59
61408;BME280;47274;43.054;25.146;2023-11-22T07:21:11;95069.53;;;7.50;100.00
61408;BME280;47274;43.054;25.146;2023-11-22T07:23:37;95053.47;;;7.30;100.00
61408;BME280;47274;43.054;25.146;2023-11-22T07:26:03;95052.78;;;7.28;100.00
61408;BME280;47274;43.054;25.146;2023-11-22T07:28:31;95032.53;;;7.17;100.00
61408;BME280;47274;43.054;25.146;2023-11-22T07:30:57;95032.13;;;7.21;100.00
61408;BME280;47274;43.054;25.146;2023-11-22T07:33:23;95069.13;;;7.45;100.00
61408;BME280;47274;43.054;25.146;2023-11-22T07:35:51;95103.09;;;7.65;100.00
61408;BME280;47274;43.054;25.146;2023-11-22T07:38:17;95077.06;;;7.51;100.00
61408;BME280;47274;43.054;25.146;2023-11-22T07:40:43;95050.38;;;7.36;100.00
61408;BME280;47274;43.054;25.146;2023-11-22T07:43:09;95069.03;;;7.46;100.00
61408;BME280;47274;43.054;25.146;2023-11-22T07:45:36;95056.66;;;7.42;100.00
61408;BME280;47274;43.054;25.146;2023-11-22T07:48:05;95073.56;;;7.52;100.00
61408;BME280;47274;43.054;25.146;2023-11-22T07:50:34;95128.97;;;7.89;100.00
61408;BME280;47274;43.054;25.146;2023-11-22T07:53:01;95092.72;;;7.76;100.00
61408;BME280;47274;43.054;25.146;2023-11-22T07:55:28;95038.50;;;7.45;100.00
61408;BME280;47274;43.054;25.146;2023-11-22T07:57:54;95105.31;;;7.87;100.00
61408;BME280;47274;43.054;25.146;2023-11-22T08:00:21;95111.59;;;7.93;100.00
61408;BME280;47274;43.054;25.146;2023-11-22T08:02:48;95127.72;;;8.03;100.00
61408;BME280;47274;43.054;25.146;2023-11-22T08:05:16;95078.09;;;7.68;100.00
61408;BME280;47274;43.054;25.146;2023-11-22T08:07:42;95133.06;;;8.10;100.00
61408;BME280;47274;43.054;25.146;2023-11-22T08:10:11;95161.97;;;8.10;100.00
61408;BME280;47274;43.054;25.146;2023-11-22T08:12:45;95153.69;;;7.98;100.00
61408;BME280;47274;43.054;25.146;2023-11-22T08:15:13;95177.63;;;8.07;100.00
61408;BME280;47274;43.054;25.146;2023-11-22T08:17:46;95182.75;;;7.97;100.00
61408;BME280;47274;43.054;25.146;2023-11-22T08:20:27;95164.91;;;7.78;100.00
61408;BME280;47274;43.054;25.146;2023-11-22T08:23:13;95148.00;;;7.67;100.00
61408;BME280;47274;43.054;25.146;2023-11-22T08:25:46;95161.03;;;7.74;100.00
61408;BME280;47274;43.054;25.146;2023-11-22T08:28:13;95130.81;;;7.50;100.00
61408;BME280;47274;43.054;25.146;2023-11-22T08:30:39;95183.59;;;7.78;100.00
61408;BME280;47274;43.054;25.146;2023-11-22T08:33:06;95171.78;;;7.58;100.00
61408;BME280;47274;43.054;25.146;2023-11-22T08:35:35;95173.00;;;7.44;100.00
61408;BME280;47274;43.054;25.146;2023-11-22T08:38:04;95153.81;;;7.21;100.00
61408;BME280;47274;43.054;25.146;2023-11-22T08:40:35;95180.13;;;7.41;100.00
61408;BME280;47274;43.054;25.146;2023-11-22T08:43:04;95197.31;;;7.48;100.00
61408;BME280;47274;43.054;25.146;2023-11-22T08:45:33;95184.16;;;7.33;100.00
61408;BME280;47274;43.054;25.146;2023-11-22T08:48:02;95200.44;;;7.42;100.00
61408;BME280;47274;43.054;25.146;2023-11-22T08:50:29;95208.22;;;7.41;100.00
61408;BME280;47274;43.054;25.146;2023-11-22T08:52:55;95210.75;;;7.41;100.00
61408;BME280;47274;43.054;25.146;2023-11-22T08:55:23;95169.00;;;7.12;100.00
61408;BME280;47274;43.054;25.146;2023-11-22T08:57:54;95081.97;;;6.57;100.00
61408;BME280;47274;43.054;25.146;2023-11-22T09:00:22;95206.47;;;7.31;100.00
61408;BME280;47274;43.054;25.146;2023-11-22T09:02:49;95187.25;;;7.27;100.00
61408;BME280;47274;43.054;25.146;2023-11-22T09:05:18;95175.97;;;7.20;100.00
61408;BME280;47274;43.054;25.146;2023-11-22T09:07:48;95177.88;;;7.18;100.00
61408;BME280;47274;43.054;25.146;2023-11-22T09:10:16;95190.59;;;7.28;100.00
61408;BME280;47274;43.054;25.146;2023-11-22T09:12:44;95196.94;;;7.33;100.00
61408;BME280;47274;43.054;25.146;2023-11-22T09:15:11;95178.41;;;7.22;100.00
61408;BME280;47274;43.054;25.146;2023-11-22T09:17:44;95157.97;;;7.12;100.00
61408;BME280;47274;43.054;25.146;2023-11-22T09:20:15;95141.59;;;7.05;100.00
61408;BME280;47274;43.054;25.146;2023-11-22T09:22:49;95208.75;;;7.44;100.00
61408;BME280;47274;43.054;25.146;2023-11-22T09:25:24;95217.47;;;7.51;100.00
61408;BME280;47274;43.054;25.146;2023-11-22T09:27:52;95199.06;;;7.38;100.00
61408;BME280;47274;43.054;25.146;2023-11-22T09:30:30;95210.50;;;7.44;100.00
61408;BME280;47274;43.054;25.146;2023-11-22T09:33:16;95224.88;;;7.45;100.00
61408;BME280;47274;43.054;25.146;2023-11-22T09:36:02;95212.53;;;7.40;100.00
61408;BME280;47274;43.054;25.146;2023-11-22T09:38:41;95211.56;;;7.31;100.00
61408;BME280;47274;43.054;25.146;2023-11-22T09:41:17;95190.34;;;7.21;100.00
61408;BME280;47274;43.054;25.146;2023-11-22T09:43:43;95181.06;;;7.10;100.00
61408;BME280;47274;43.054;25.146;2023-11-22T09:46:13;95175.16;;;7.10;100.00
61408;BME280;47274;43.054;25.146;2023-11-22T09:48:39;95224.06;;;7.34;100.00
61408;BME280;47274;43.054;25.146;2023-11-22T09:53:56;95235.91;;;7.35;100.00
61408;BME280;47274;43.054;25.146;2023-11-22T09:56:27;95213.84;;;7.15;100.00
61408;BME280;47274;43.054;25.146;2023-11-22T09:58:55;95208.22;;;7.11;100.00
61408;BME280;47274;43.054;25.146;2023-11-22T10:01:23;95218.41;;;7.21;100.00
61408;BME280;47274;43.054;25.146;2023-11-22T10:03:50;95224.19;;;7.23;100.00
61408;BME280;47274;43.054;25.146;2023-11-22T10:06:18;95211.56;;;7.12;100.00
61408;BME280;47274;43.054;25.146;2023-11-22T10:08:46;95195.28;;;7.03;100.00
61408;BME280;47274;43.054;25.146;2023-11-22T10:11:17;95194.50;;;7.03;100.00
61408;BME280;47274;43.054;25.146;2023-11-22T10:13:47;95199.06;;;7.09;100.00
61408;BME280;47274;43.054;25.146;2023-11-22T10:16:15;95215.31;;;7.27;100.00
61408;BME280;47274;43.054;25.146;2023-11-22T10:18:43;95220.03;;;7.22;100.00
61408;BME280;47274;43.054;25.146;2023-11-22T10:21:19;95223.78;;;7.28;100.00
61408;BME280;47274;43.054;25.146;2023-11-22T10:23:53;95216.00;;;7.20;100.00
61408;BME280;47274;43.054;25.146;2023-11-22T10:26:19;95220.31;;;7.19;100.00
61408;BME280;47274;43.054;25.146;2023-11-22T10:28:45;95250.97;;;7.39;100.00
61408;BME280;47274;43.054;25.146;2023-11-22T10:31:11;95238.03;;;7.30;100.00
61408;BME280;47274;43.054;25.146;2023-11-22T10:33:42;95244.75;;;7.31;100.00
61408;BME280;47274;43.054;25.146;2023-11-22T10:36:09;95250.41;;;7.35;100.00
61408;BME280;47274;43.054;25.146;2023-11-22T10:38:42;95118.44;;;6.48;100.00
61408;BME280;47274;43.054;25.146;2023-11-22T10:41:14;95158.59;;;6.75;100.00
61408;BME280;47274;43.054;25.146;2023-11-22T10:43:46;95184.69;;;6.98;100.00
61408;BME280;47274;43.054;25.146;2023-11-22T10:46:46;95174.06;;;6.93;100.00
61408;BME280;47274;43.054;25.146;2023-11-22T10:49:31;95262.91;;;7.48;100.00
61408;BME280;47274;43.054;25.146;2023-11-22T10:52:07;95215.19;;;7.19;100.00
61408;BME280;47274;43.054;25.146;2023-11-22T10:54:34;95243.28;;;7.39;100.00
61408;BME280;47274;43.054;25.146;2023-11-22T10:57:02;95272.72;;;7.62;100.00
61408;BME280;47274;43.054;25.146;2023-11-22T10:59:30;95233.63;;;7.42;100.00
61408;BME280;47274;43.054;25.146;2023-11-22T11:02:01;95255.50;;;7.54;100.00
61408;BME280;47274;43.054;25.146;2023-11-22T11:04:41;95272.34;;;7.67;100.00
61408;BME280;47274;43.054;25.146;2023-11-22T11:07:12;95265.34;;;7.59;100.00
61408;BME280;47274;43.054;25.146;2023-11-22T11:09:45;95261.56;;;7.63;100.00
61408;BME280;47274;43.054;25.146;2023-11-22T11:12:12;95260.91;;;7.71;100.00
61408;BME280;47274;43.054;25.146;2023-11-22T11:14:39;95258.34;;;7.61;100.00
61408;BME280;47274;43.054;25.146;2023-11-22T11:17:06;95255.94;;;7.59;100.00
61408;BME280;47274;43.054;25.146;2023-11-22T11:19:32;95243.53;;;7.45;100.00
61408;BME280;47274;43.054;25.146;2023-11-22T11:21:59;95225.28;;;7.30;100.00
61408;BME280;47274;43.054;25.146;2023-11-22T11:24:25;95258.34;;;7.51;100.00
61408;BME280;47274;43.054;25.146;2023-11-22T11:27:02;95269.25;;;7.63;100.00
61408;BME280;47274;43.054;25.146;2023-11-22T11:29:33;95207.94;;;7.24;100.00
61408;BME280;47274;43.054;25.146;2023-11-22T11:31:59;95207.94;;;7.24;100.00
61408;BME280;47274;43.054;25.146;2023-11-22T11:34:25;95179.31;;;7.11;100.00
61408;BME280;47274;43.054;25.146;2023-11-22T11:36:55;95239.66;;;7.51;100.00
61408;BME280;47274;43.054;25.146;2023-11-22T11:39:26;95262.38;;;7.64;100.00
61408;BME280;47274;43.054;25.146;2023-11-22T11:42:09;95254.03;;;7.62;100.00
61408;BME280;47274;43.054;25.146;2023-11-22T11:45:11;95232.16;;;7.49;100.00
61408;BME280;47274;43.054;25.146;2023-11-22T11:47:36;95254.19;;;7.60;100.00
61408;BME280;47274;43.054;25.146;2023-11-22T11:50:03;95270.84;;;7.64;100.00
61408;BME280;47274;43.054;25.146;2023-11-22T11:52:30;95242.75;;;7.45;100.00
61408;BME280;47274;43.054;25.146;2023-11-22T11:54:56;95238.19;;;7.39;100.00
61408;BME280;47274;43.054;25.146;2023-11-22T11:57:23;95212.91;;;7.16;100.00
61408;BME280;47274;43.054;25.146;2023-11-22T12:00:00;95229.03;;;7.36;100.00
61408;BME280;47274;43.054;25.146;2023-11-22T12:02:37;95196.53;;;7.09;100.00
61408;BME280;47274;43.054;25.146;2023-11-22T12:05:06;95184.69;;;6.98;100.00
61408;BME280;47274;43.054;25.146;2023-11-22T12:07:41;95276.47;;;7.58;100.00
61408;BME280;47274;43.054;25.146;2023-11-22T12:10:09;95203.63;;;7.05;100.00
61408;BME280;47274;43.054;25.146;2023-11-22T12:12:45;95309.16;;;7.64;100.00
61408;BME280;47274;43.054;25.146;2023-11-22T12:15:11;95267.59;;;7.33;100.00
61408;BME280;47274;43.054;25.146;2023-11-22T12:17:38;95317.88;;;7.62;100.00
61408;BME280;47274;43.054;25.146;2023-11-22T12:20:14;95274.47;;;7.32;100.00
61408;BME280;47274;43.054;25.146;2023-11-22T12:22:51;95222.00;;;6.89;100.00
61408;BME280;47274;43.054;25.146;2023-11-22T12:25:22;95205.06;;;6.79;100.00
61408;BME280;47274;43.054;25.146;2023-11-22T12:27:56;95165.13;;;6.49;100.00
61408;BME280;47274;43.054;25.146;2023-11-22T12:30:33;95234.47;;;6.93;100.00
61408;BME280;47274;43.054;25.146;2023-11-22T12:33:12;95241.66;;;7.08;100.00
61408;BME280;47274;43.054;25.146;2023-11-22T12:36:00;95298.25;;;7.52;100.00
61408;BME280;47274;43.054;25.146;2023-11-22T12:38:40;95267.06;;;7.39;100.00
61408;BME280;47274;43.054;25.146;2023-11-22T12:41:19;95269.47;;;7.31;100.00
61408;BME280;47274;43.054;25.146;2023-11-22T12:44:05;95266.78;;;7.23;100.00
61408;BME280;47274;43.054;25.146;2023-11-22T12:46:53;95338.72;;;7.67;100.00
61408;BME280;47274;43.054;25.146;2023-11-22T12:49:43;95287.31;;;7.21;100.00
61408;BME280;47274;43.054;25.146;2023-11-22T12:52:13;95267.16;;;7.08;100.00
61408;BME280;47274;43.054;25.146;2023-11-22T12:54:52;95218.06;;;6.76;100.00
61408;BME280;47274;43.054;25.146;2023-11-22T12:57:19;95261.34;;;6.97;100.00
61408;BME280;47274;43.054;25.146;2023-11-22T12:59:44;95281.13;;;7.04;100.00
61408;BME280;47274;43.054;25.146;2023-11-22T13:02:16;95241.81;;;6.76;100.00
61408;BME280;47274;43.054;25.146;2023-11-22T13:04:43;95276.78;;;6.95;100.00
61408;BME280;47274;43.054;25.146;2023-11-22T13:07:14;95314.72;;;7.19;100.00
61408;BME280;47274;43.054;25.146;2023-11-22T13:09:40;95355.25;;;7.53;100.00